Queen Isabella — A8IE2 — position and weather

sailwx.info

Track history (hours):
 
Tides and Currents Weather Stations Pressure Air Temp Water Temp Dewpoint Dewpoint Depression Visibility Wind Speed Wind Dir Waves Ship Positions

Queen Isabella

Last reported at 2017-Aug-16 11:42 UTC. Time now 2017-Aug-16 21:49 UTC.
Position N 38°35' E 000°22'.

Length 131 m; draft 7.5 m.

Type: Ship. MMSI: 636090959.

Date/timePositionNaut miles runAvg speedWind from/ knotsBaromVisibWave heightAir tempDewpointWater temp
2017-Aug-16 11:42N 38°35' E 000°22'313.6
2017-Aug-16 11:30N 38°32' E 000°21'2213.6
2017-Aug-16 09:53N 38°13' E 000°06'3613.6
2017-Aug-16 07:15N 37°45' W 000°21'313.8
2017-Aug-16 07:00N 37°42' W 000°24'713.9
2017-Aug-16 06:30N 37°36' W 000°29'713.9
2017-Aug-16 06:00N 37°31' W 000°34'713.9
2017-Aug-16 05:30N 37°26' W 000°41'713.2
2017-Aug-16 05:00N 37°22' W 000°47'613.1
2017-Aug-16 04:30N 37°18' W 000°53'713.5
2017-Aug-16 03:59N 37°13' W 000°60'21413.5
2017-Aug-15 12:08N 36°01' W 005°11'213.8
2017-Aug-15 11:59N 36°02' W 005°14'713.8
2017-Aug-15 11:30N 36°05' W 005°21'8 0.4
2017-Aug-14 17:50N 36°01' W 005°12'514.4
2017-Aug-14 17:30N 36°00' W 005°18'612.6
2017-Aug-14 17:00N 35°59' W 005°26'11 0.2
2017-Aug-12 19:23N 35°58' W 005°39'411.3
2017-Aug-12 18:59N 35°59' W 005°34'612.3
2017-Aug-12 18:30N 35°60' W 005°26'612.4
2017-Aug-12 18:00N 36°01' W 005°19'612.5
2017-Aug-12 17:30N 36°03' W 005°11'22212.1
2017-Aug-11 23:12N 37°22' W 000°53'312.6
2017-Aug-11 22:59N 37°24' W 000°51'2112.4
2017-Aug-11 21:19N 37°37' W 000°31'412.6
2017-Aug-11 21:00N 37°41' W 000°28'  
2017-Aug-08 04:18N 39°25' E 001°33'412.4
2017-Aug-08 03:58N 39°23' E 001°39'612.6
2017-Aug-08 03:30N 39°21' E 001°46'612.1
2017-Aug-08 03:00N 39°18' E 001°52'612.8
2017-Aug-08 02:30N 39°15' E 001°60'612.9
2017-Aug-08 02:00N 39°13' E 002°07'612.9
2017-Aug-08 01:30N 39°09' E 002°14'712.9
2017-Aug-08 00:59N 39°06' E 002°22'613.0
2017-Aug-08 00:30N 39°03' E 002°29'713.1
2017-Aug-08 00:00N 39°00' E 002°36'713.1
2017-Aug-07 23:30N 38°58' E 002°44'713.2
2017-Aug-07 23:00N 38°55' E 002°52'613.2
2017-Aug-07 22:30N 38°52' E 002°59'713.1
2017-Aug-07 22:00N 38°49' E 003°07'713.1
2017-Aug-07 21:30N 38°46' E 003°15'713.1
2017-Aug-07 21:00N 38°44' E 003°22'713.3
2017-Aug-07 20:30N 38°41' E 003°30'713.4
2017-Aug-07 20:00N 38°38' E 003°38'1213.3
2017-Aug-07 19:04N 38°32' E 003°52'313.2
2017-Aug-07 18:50N 38°31' E 003°55'1413.1
2017-Aug-07 17:46N 38°25' E 004°11'313.0
2017-Aug-07 17:30N 38°23' E 004°15'713.0
2017-Aug-07 16:55N 38°20' E 004°24'513.1
2017-Aug-07 16:30N 38°17' E 004°30'613.0
2017-Aug-07 16:00N 38°15' E 004°37'713.1
2017-Aug-07 15:30N 38°12' E 004°45'613.1
2017-Aug-07 15:00N 38°09' E 004°52'713.0
2017-Aug-07 14:30N 38°06' E 004°60'613.1
2017-Aug-07 14:00N 38°03' E 005°07'14012.7
2017-Aug-07 02:59N 37°03' E 007°47'  
Track history (hours):
 
Tides and Currents Weather Stations Pressure Air Temp Water Temp Dewpoint Dewpoint Depression Visibility Wind Speed Wind Dir Waves Ship Positions

Queen Isabella

Last reported at 2017-Aug-16 11:42 UTC. Time now 2017-Aug-16 21:49 UTC.
Position N 38°35' E 000°22'.

Length 131 m; draft 7.5 m.

Type: Ship. MMSI: 636090959.

Date/timePositionNaut miles runAvg speedWind from/ knotsBaromVisibWave heightAir tempDewpointWater temp
2017-Aug-16 11:42N 38°35' E 000°22'313.6
2017-Aug-16 11:30N 38°32' E 000°21'2213.6
2017-Aug-16 09:53N 38°13' E 000°06'3613.6
2017-Aug-16 07:15N 37°45' W 000°21'313.8
2017-Aug-16 07:00N 37°42' W 000°24'713.9
2017-Aug-16 06:30N 37°36' W 000°29'713.9
2017-Aug-16 06:00N 37°31' W 000°34'713.9
2017-Aug-16 05:30N 37°26' W 000°41'713.2
2017-Aug-16 05:00N 37°22' W 000°47'613.1
2017-Aug-16 04:30N 37°18' W 000°53'713.5
2017-Aug-16 03:59N 37°13' W 000°60'21413.5
2017-Aug-15 12:08N 36°01' W 005°11'213.8
2017-Aug-15 11:59N 36°02' W 005°14'713.8
2017-Aug-15 11:30N 36°05' W 005°21'8 0.4
2017-Aug-14 17:50N 36°01' W 005°12'514.4
2017-Aug-14 17:30N 36°00' W 005°18'612.6
2017-Aug-14 17:00N 35°59' W 005°26'11 0.2
2017-Aug-12 19:23N 35°58' W 005°39'411.3
2017-Aug-12 18:59N 35°59' W 005°34'612.3
2017-Aug-12 18:30N 35°60' W 005°26'612.4
2017-Aug-12 18:00N 36°01' W 005°19'612.5
2017-Aug-12 17:30N 36°03' W 005°11'22212.1
2017-Aug-11 23:12N 37°22' W 000°53'312.6
2017-Aug-11 22:59N 37°24' W 000°51'2112.4
2017-Aug-11 21:19N 37°37' W 000°31'412.6
2017-Aug-11 21:00N 37°41' W 000°28'  
2017-Aug-08 04:18N 39°25' E 001°33'412.4
2017-Aug-08 03:58N 39°23' E 001°39'612.6
2017-Aug-08 03:30N 39°21' E 001°46'612.1
2017-Aug-08 03:00N 39°18' E 001°52'612.8
2017-Aug-08 02:30N 39°15' E 001°60'612.9
2017-Aug-08 02:00N 39°13' E 002°07'612.9
2017-Aug-08 01:30N 39°09' E 002°14'712.9
2017-Aug-08 00:59N 39°06' E 002°22'613.0
2017-Aug-08 00:30N 39°03' E 002°29'713.1
2017-Aug-08 00:00N 39°00' E 002°36'713.1
2017-Aug-07 23:30N 38°58' E 002°44'713.2
2017-Aug-07 23:00N 38°55' E 002°52'613.2
2017-Aug-07 22:30N 38°52' E 002°59'713.1
2017-Aug-07 22:00N 38°49' E 003°07'713.1
2017-Aug-07 21:30N 38°46' E 003°15'713.1
2017-Aug-07 21:00N 38°44' E 003°22'713.3
2017-Aug-07 20:30N 38°41' E 003°30'713.4
2017-Aug-07 20:00N 38°38' E 003°38'1213.3
2017-Aug-07 19:04N 38°32' E 003°52'313.2
2017-Aug-07 18:50N 38°31' E 003°55'1413.1
2017-Aug-07 17:46N 38°25' E 004°11'313.0
2017-Aug-07 17:30N 38°23' E 004°15'713.0
2017-Aug-07 16:55N 38°20' E 004°24'513.1
2017-Aug-07 16:30N 38°17' E 004°30'613.0
2017-Aug-07 16:00N 38°15' E 004°37'713.1
2017-Aug-07 15:30N 38°12' E 004°45'613.1
2017-Aug-07 15:00N 38°09' E 004°52'713.0
2017-Aug-07 14:30N 38°06' E 004°60'613.1
2017-Aug-07 14:00N 38°03' E 005°07'14012.7
2017-Aug-07 02:59N 37°03' E 007°47'  

Dump ship's entire track history